Time;durP1;ratioP1;P1;durP2;ratioP2;P2;SDS_P1;SDS_P2;PMS_P1;PMS_P2;Temp;Humidity;BMP_temperature;BMP_pressure;BME280_temperature;BME280_humidity;BME280_pressure;Samples;Min_cycle;Max_cycle;Signal;HPM_P1;HPM_P2
2023/02/07 00:01:51;;;;;;;16.85;10.90;;;;;;;-1.39;82.77;101193.84;5055675;28;20036;-76
2023/02/07 00:04:16;;;;;;;16.13;10.02;;;;;;;-0.93;83.48;101206.94;5062587;28;20037;-76
2023/02/07 00:06:41;;;;;;;13.43;8.45;;;;;;;-0.28;85.09;101214.91;5064529;28;20072;-76
2023/02/07 00:09:09;;;;;;;19.08;10.68;;;;;;;-1.17;80.89;101214.88;5061544;28;20032;-76
2023/02/07 00:11:39;;;;;;;14.30;10.25;;;;;;;-1.15;80.75;101215.59;5046810;28;20459;-77
2023/02/07 00:14:04;;;;;;;16.35;10.65;;;;;;;-1.13;81.04;101218.94;5055882;28;20033;-77
2023/02/07 00:16:29;;;;;;;18.38;10.98;;;;;;;-1.14;80.38;101211.19;5057354;28;20125;-73
2023/02/07 00:18:55;;;;;;;15.63;11.15;;;;;;;-1.18;80.20;101212.38;5055506;28;20032;-72
2023/02/07 00:21:23;;;;;;;17.90;10.70;;;;;;;-1.20;81.04;101201.19;5058578;28;20093;-74
2023/02/07 00:23:48;;;;;;;21.85;12.50;;;;;;;-0.88;81.95;101210.03;5062302;28;20050;-75
2023/02/07 00:26:15;;;;;;;19.23;12.43;;;;;;;-0.89;80.82;101209.22;5052066;28;20401;-73
2023/02/07 00:28:41;;;;;;;23.83;11.73;;;;;;;-0.87;80.80;101209.09;5051487;28;20489;-73
2023/02/07 00:31:14;;;;;;;18.60;11.10;;;;;;;-1.05;80.16;101206.06;5051454;28;20159;-76
2023/02/07 00:33:41;;;;;;;18.13;11.60;;;;;;;-0.91;82.46;101202.41;5050335;28;20435;-76
2023/02/07 00:36:09;;;;;;;16.30;10.65;;;;;;;-0.28;83.35;101207.03;5055313;28;20048;-74
2023/02/07 00:38:35;;;;;;;20.23;11.75;;;;;;;-0.46;79.81;101201.47;5057506;28;20048;-73
2023/02/07 00:41:01;;;;;;;21.63;11.95;;;;;;;-0.97;79.59;101193.25;5057904;28;20036;-76
2023/02/07 00:43:28;;;;;;;19.92;11.10;;;;;;;-0.26;84.78;101202.50;5059416;28;20036;-76
2023/02/07 00:45:54;;;;;;;24.58;12.80;;;;;;;-0.47;79.95;101196.34;5061893;28;20396;-76
2023/02/07 00:48:20;;;;;;;16.77;10.43;;;;;;;0.14;84.38;101203.63;5062360;28;20039;-76
2023/02/07 00:50:45;;;;;;;22.65;13.80;;;;;;;-0.31;81.41;101196.81;5057710;28;20028;-76
2023/02/07 00:53:10;;;;;;;21.05;13.10;;;;;;;-0.52;81.06;101196.69;5059358;28;20056;-72
2023/02/07 00:55:36;;;;;;;17.50;10.82;;;;;;;-0.72;81.65;101189.53;5057771;28;20532;-72
2023/02/07 00:58:01;;;;;;;22.52;13.20;;;;;;;-1.27;79.73;101187.72;5056547;28;20040;-73
2023/02/07 01:00:26;;;;;;;17.55;12.27;;;;;;;-0.67;82.12;101187.41;5063416;28;20028;-75
2023/02/07 01:02:52;;;;;;;19.38;12.80;;;;;;;0.10;84.12;101180.38;5059733;28;20063;-76
2023/02/07 01:05:17;;;;;;;21.75;12.93;;;;;;;-0.52;79.36;101183.59;5054993;28;20033;-75
2023/02/07 01:07:42;;;;;;;19.40;12.13;;;;;;;-0.17;80.95;101186.88;5059001;28;20577;-76
2023/02/07 01:10:10;;;;;;;25.83;15.23;;;;;;;-0.20;80.28;101184.50;5056024;28;20032;-76
2023/02/07 01:12:36;;;;;;;19.98;12.45;;;;;;;0.35;82.19;101193.19;5053824;28;20036;-76
2023/02/07 01:15:01;;;;;;;23.33;14.18;;;;;;;-0.57;80.41;101182.28;5060978;28;20082;-76
2023/02/07 01:17:27;;;;;;;22.98;13.88;;;;;;;-1.19;79.60;101174.88;5064230;28;20093;-77
2023/02/07 01:19:57;;;;;;;23.90;13.65;;;;;;;-0.62;82.89;101176.56;5059587;28;20036;-77
2023/02/07 01:22:23;;;;;;;23.58;14.68;;;;;;;0.32;83.91;101190.78;5059443;28;20052;-76
2023/02/07 01:24:49;;;;;;;21.05;14.27;;;;;;;0.08;79.89;101190.16;5063669;28;20059;-77
2023/02/07 01:27:14;;;;;;;22.35;14.38;;;;;;;-0.41;78.67;101183.56;5052882;28;20531;-75
2023/02/07 01:29:40;;;;;;;23.42;15.82;;;;;;;-0.50;78.68;101165.13;5057997;28;20086;-76
2023/02/07 01:32:05;;;;;;;20.10;13.27;;;;;;;-0.11;82.97;101170.63;5059461;28;20734;-76
2023/02/07 01:34:30;;;;;;;20.17;13.30;;;;;;;0.06;83.57;101174.53;5059740;28;20056;-76
2023/02/07 01:36:56;;;;;;;25.52;16.30;;;;;;;-0.40;79.01;101168.69;5056222;28;20032;-76
2023/02/07 01:39:21;;;;;;;26.73;16.45;;;;;;;-0.52;78.89;101170.47;5053952;28;20028;-76
2023/02/07 01:41:46;;;;;;;23.92;15.13;;;;;;;-0.61;79.22;101167.75;5051619;28;20036;-75
2023/02/07 01:44:21;;;;;;;22.15;14.93;;;;;;;-0.25;80.50;101167.47;5054601;28;20453;-77
2023/02/07 01:46:47;;;;;;;19.85;13.38;;;;;;;0.10;81.73;101170.72;5051900;28;20028;-74
2023/02/07 01:49:15;;;;;;;26.20;14.93;;;;;;;0.08;80.66;101170.00;5054607;28;20493;-76
2023/02/07 01:51:44;;;;;;;22.25;14.98;;;;;;;0.07;79.53;101157.81;5061564;28;20506;-79
2023/02/07 01:54:12;;;;;;;23.48;15.30;;;;;;;-0.32;78.89;101161.88;5064037;28;20040;-76
2023/02/07 01:56:43;;;;;;;22.92;14.82;;;;;;;-0.14;81.06;101164.81;5063859;28;20396;-76
2023/02/07 01:59:09;;;;;;;25.38;15.30;;;;;;;-0.08;82.21;101165.16;5061006;28;20016;-77
2023/02/07 02:01:35;;;;;;;26.20;16.35;;;;;;;0.30;83.84;101158.56;5061379;28;20107;-78
2023/02/07 02:04:00;;;;;;;24.67;14.82;;;;;;;0.36;82.82;101168.56;5069063;28;20166;-78
2023/02/07 02:06:29;;;;;;;20.75;13.52;;;;;;;0.70;82.68;101154.28;5062066;28;20349;-78
2023/02/07 02:08:57;;;;;;;17.45;12.85;;;;;;;0.34;81.28;101157.34;5063026;28;20049;-76
2023/02/07 02:11:35;;;;;;;23.48;14.45;;;;;;;-0.02;80.39;101143.66;5063137;28;20025;-78
2023/02/07 02:14:21;;;;;;;21.70;13.50;;;;;;;-0.52;78.33;101159.97;5064484;28;20552;-74
2023/02/07 02:17:10;;;;;;;19.92;13.50;;;;;;;-1.02;79.09;101153.44;5060301;28;20029;-76
2023/02/07 02:20:07;;;;;;;26.80;15.65;;;;;;;-1.18;78.42;101155.56;5067675;28;20059;-76
2023/02/07 02:22:58;;;;;;;25.02;14.13;;;;;;;-1.69;79.15;101152.47;5065292;28;20029;-75
2023/02/07 02:25:56;;;;;;;24.92;15.25;;;;;;;-1.12;79.52;101147.25;5062752;28;20045;-74
2023/02/07 02:28:43;;;;;;;27.95;14.88;;;;;;;-1.30;79.70;101150.41;5029611;28;20072;-75
2023/02/07 02:31:44;;;;;;;26.67;16.25;;;;;;;-1.57;78.70;101154.16;5065240;28;20047;-75
2023/02/07 02:34:46;;;;;;;29.85;16.92;;;;;;;-2.02;79.29;101157.56;5064069;28;20039;-75
2023/02/07 02:37:39;;;;;;;27.52;15.57;;;;;;;-1.92;79.82;101152.50;5063706;28;20025;-76
2023/02/07 02:40:12;;;;;;;24.27;14.52;;;;;;;-1.39;82.31;101156.34;5059158;28;20560;-74
2023/02/07 02:42:58;;;;;;;26.80;17.33;;;;;;;-1.62;79.34;101150.25;5065367;28;20031;-75
2023/02/07 02:45:37;;;;;;;25.27;15.88;;;;;;;-2.17;79.93;101156.06;5059644;28;20127;-77
2023/02/07 02:48:05;;;;;;;29.95;17.02;;;;;;;-2.69;80.78;101161.56;5057972;28;20036;-74
2023/02/07 02:50:33;;;;;;;26.45;16.58;;;;;;;-0.70;86.74;101165.84;5057114;28;20472;-74
2023/02/07 02:52:59;;;;;;;30.95;17.13;;;;;;;-1.58;80.44;101165.59;5062441;28;20028;-76
2023/02/07 02:55:36;;;;;;;33.88;17.73;;;;;;;-1.95;80.05;101164.03;5064713;28;20042;-77
2023/02/07 02:58:25;;;;;;;31.35;17.42;;;;;;;-2.40;80.17;101156.84;5057674;28;20089;-73
2023/02/07 03:00:57;;;;;;;25.15;15.45;;;;;;;-1.35;84.80;101150.78;5062578;28;20033;-77
2023/02/07 03:03:28;;;;;;;34.03;19.98;;;;;;;-2.04;80.77;101149.00;5064371;28;20381;-74
2023/02/07 03:06:18;;;;;;;30.70;16.77;;;;;;;-2.32;80.03;101142.31;5062639;28;20382;-73
2023/02/07 03:09:06;;;;;;;25.80;16.00;;;;;;;-0.87;84.86;101147.00;5058664;28;20032;-73
2023/02/07 03:11:41;;;;;;;26.85;16.42;;;;;;;-1.39;80.23;101153.72;5054961;28;20032;-73
2023/02/07 03:14:17;;;;;;;33.50;17.20;;;;;;;-1.57;79.35;101143.69;5062402;28;20052;-74
2023/02/07 03:16:51;;;;;;;35.35;17.50;;;;;;;-0.83;82.16;101132.72;5058275;28;20039;-76
2023/02/07 03:19:29;;;;;;;30.02;17.40;;;;;;;-0.92;81.33;101145.72;5062812;28;20469;-75
2023/02/07 03:21:58;;;;;;;34.60;20.70;;;;;;;-1.91;79.09;101141.91;5056118;28;20028;-75
2023/02/07 03:24:33;;;;;;;31.40;18.55;;;;;;;-1.05;83.77;101134.50;5064470;28;20099;-75
2023/02/07 03:27:05;;;;;;;38.88;21.00;;;;;;;-1.61;79.95;101129.16;5061647;28;20146;-76
2023/02/07 03:29:31;;;;;;;28.40;16.35;;;;;;;-1.21;82.94;101134.00;5061200;28;20049;-74
2023/02/07 03:32:01;;;;;;;33.00;19.90;;;;;;;-2.21;79.92;101148.56;5059648;28;20167;-76
2023/02/07 03:34:37;;;;;;;31.13;18.05;;;;;;;-1.46;81.89;101148.13;5060705;28;20028;-75
2023/02/07 03:37:05;;;;;;;;;;;;;;;-1.93;81.00;101156.91;5060520;28;20020;-75
2023/02/07 03:39:32;;;;;;;30.55;17.55;;;;;;;-1.20;81.81;101161.88;5059415;28;19912;-75
2023/02/07 03:42:04;;;;;;;31.20;18.80;;;;;;;-1.85;79.45;101151.94;5063949;28;20028;-76
2023/02/07 03:44:32;;;;;;;33.05;19.75;;;;;;;-2.63;81.20;101161.13;5060514;28;20028;-75
2023/02/07 03:46:58;;;;;;;36.75;21.17;;;;;;;-2.68;81.78;101162.38;5060190;28;20029;-74
2023/02/07 03:49:23;;;;;;;36.22;20.10;;;;;;;-3.12;81.21;101150.63;5058077;28;20032;-75
2023/02/07 03:51:50;;;;;;;45.65;24.35;;;;;;;-3.00;83.45;101145.50;5054925;28;20032;-74
2023/02/07 03:54:16;;;;;;;43.97;21.55;;;;;;;-2.43;83.24;101159.72;5059203;28;20087;-76
2023/02/07 03:56:41;;;;;;;41.90;23.10;;;;;;;-2.33;82.10;101152.88;5060562;28;20566;-75
2023/02/07 03:59:07;;;;;;;36.92;21.38;;;;;;;-2.40;80.88;101146.41;5061271;28;20584;-76
2023/02/07 04:01:36;;;;;;;38.50;21.52;;;;;;;-2.43;80.92;101133.56;5060059;28;20020;-76
2023/02/07 04:04:02;;;;;;;34.55;19.00;;;;;;;-1.08;84.63;101132.13;5062665;28;20081;-76
2023/02/07 04:06:27;;;;;;;38.72;21.73;;;;;;;-1.79;80.56;101127.09;5056593;28;20032;-75
2023/02/07 04:08:52;;;;;;;32.15;18.02;;;;;;;-1.83;80.88;101138.72;5054957;28;20111;-76
2023/02/07 04:11:18;;;;;;;38.92;22.90;;;;;;;-1.60;79.70;101122.16;5051546;28;20032;-76
2023/02/07 04:13:43;;;;;;;38.65;21.45;;;;;;;-2.04;79.78;101109.75;5045668;28;20024;-75
2023/02/07 04:16:08;;;;;;;38.55;21.70;;;;;;;-1.41;81.79;101103.25;5055396;28;20097;-76
2023/02/07 04:18:34;;;;;;;33.83;19.73;;;;;;;-0.79;83.00;101102.69;5057339;28;20036;-74
2023/02/07 04:21:04;;;;;;;37.20;20.60;;;;;;;-0.40;81.94;101109.19;5062185;28;20551;-75
2023/02/07 04:23:30;;;;;;;30.52;18.90;;;;;;;0.02;81.50;101099.63;5058338;28;20109;-76
2023/02/07 04:25:56;;;;;;;35.33;19.65;;;;;;;-0.60;79.65;101099.44;5056460;28;20725;-76
2023/02/07 04:28:21;;;;;;;31.02;19.23;;;;;;;-0.43;79.73;101101.56;5058087;28;20029;-75
2023/02/07 04:30:46;;;;;;;31.42;18.48;;;;;;;-0.74;81.07;101091.84;5055094;28;20119;-74
2023/02/07 04:33:12;;;;;;;34.22;19.95;;;;;;;-1.41;78.12;101087.53;5051228;28;20448;-76
2023/02/07 04:35:37;;;;;;;35.85;19.13;;;;;;;-1.38;81.08;101090.78;5054748;28;20033;-74
2023/02/07 04:38:03;;;;;;;36.35;19.65;;;;;;;-0.82;81.12;101107.34;5054596;28;20032;-76
2023/02/07 04:40:28;;;;;;;34.03;19.83;;;;;;;-1.11;81.15;101095.66;5055384;28;20106;-76
2023/02/07 04:42:53;;;;;;;39.72;20.20;;;;;;;-0.96;79.07;101097.94;5054640;28;20044;-76
2023/02/07 04:45:19;;;;;;;34.67;18.73;;;;;;;-1.10;80.63;101092.09;5055366;28;20025;-74
2023/02/07 04:47:44;;;;;;;32.80;18.05;;;;;;;-0.31;81.24;101107.63;5058026;28;20029;-74
2023/02/07 04:50:09;;;;;;;30.60;16.92;;;;;;;-0.58;81.94;101123.75;5053118;28;20505;-73
2023/02/07 04:52:35;;;;;;;31.58;18.50;;;;;;;-0.39;80.48;101125.75;5054277;28;20040;-75
2023/02/07 04:55:01;;;;;;;38.03;21.35;;;;;;;-1.76;77.39;101129.47;5059999;28;20041;-74
2023/02/07 04:57:26;;;;;;;42.17;23.48;;;;;;;-2.21;79.38;101125.84;5059614;28;20389;-74
2023/02/07 04:59:51;;;;;;;37.03;20.00;;;;;;;-2.51;80.24;101122.84;5058630;28;20040;-74
2023/02/07 05:02:17;;;;;;;32.45;18.08;;;;;;;-2.29;80.58;101122.94;5060638;28;20081;-74
2023/02/07 05:04:42;;;;;;;36.00;20.75;;;;;;;-2.50;81.15;101121.88;5057790;28;20041;-74
2023/02/07 05:07:07;;;;;;;43.13;22.90;;;;;;;-2.71;80.48;101139.09;5055171;28;20033;-72
2023/02/07 05:09:33;;;;;;;35.55;18.58;;;;;;;-2.33;82.30;101135.41;5062655;28;20060;-74
2023/02/07 05:11:58;;;;;;;35.55;18.65;;;;;;;-2.20;80.70;101137.13;5063755;28;20076;-73
2023/02/07 05:14:23;;;;;;;40.72;20.77;;;;;;;-2.50;80.76;101154.09;5060912;28;20029;-73
2023/02/07 05:16:49;;;;;;;30.83;16.67;;;;;;;-2.54;80.32;101143.94;5055677;28;20945;-74
2023/02/07 05:19:14;;;;;;;46.15;21.98;;;;;;;-2.44;80.47;101150.19;5060611;28;20056;-73
2023/02/07 05:21:39;;;;;;;37.47;21.55;;;;;;;-2.72;79.62;101146.09;5057059;28;20037;-77
2023/02/07 05:24:05;;;;;;;39.85;20.77;;;;;;;-3.11;80.67;101161.91;5064027;28;20472;-74
2023/02/07 05:26:30;;;;;;;34.50;18.38;;;;;;;-2.20;83.36;101155.44;5056285;28;20481;-73
2023/02/07 05:28:56;;;;;;;31.27;19.00;;;;;;;-1.15;82.97;101164.97;5064171;28;20482;-74
2023/02/07 05:33:02;;;;;;;31.77;19.05;;;;;;;-1.68;79.16;101164.59;5058505;28;20028;-75
2023/02/07 05:34:06;;;;;;;30.50;17.20;;;;;;;-0.50;80.62;101176.44;5067108;28;20071;-73
2023/02/07 05:36:32;;;;;;;26.67;16.83;;;;;;;-0.14;78.72;101170.91;5059834;28;20639;-73
2023/02/07 05:38:57;;;;;;;31.88;18.23;;;;;;;-0.45;77.66;101174.28;5062472;28;20061;-74
2023/02/07 05:41:22;;;;;;;29.20;17.17;;;;;;;-0.25;78.30;101173.53;5059837;28;20123;-73
2023/02/07 05:43:48;;;;;;;34.13;18.88;;;;;;;-0.34;77.94;101174.28;5056933;28;20374;-74
2023/02/07 05:46:13;;;;;;;35.05;19.92;;;;;;;-0.21;77.33;101179.38;5060748;28;20037;-74
2023/02/07 05:48:38;;;;;;;34.65;20.60;;;;;;;-1.33;76.05;101182.09;5056257;28;20056;-73
2023/02/07 05:51:04;;;;;;;37.15;20.67;;;;;;;-1.84;77.48;101181.56;5059836;28;20025;-74
2023/02/07 05:53:29;;;;;;;32.03;18.35;;;;;;;-0.90;80.17;101178.72;5058827;28;20489;-74
2023/02/07 05:55:54;;;;;;;35.10;18.67;;;;;;;-0.53;79.33;101181.09;5060068;28;20052;-73
2023/02/07 05:58:20;;;;;;;30.90;18.55;;;;;;;-0.58;78.56;101193.72;5059592;28;20064;-73
2023/02/07 06:00:47;;;;;;;36.15;20.35;;;;;;;-1.14;77.90;101196.31;5061947;28;20045;-74
2023/02/07 06:03:13;;;;;;;35.05;22.27;;;;;;;-1.45;78.59;101202.19;5061631;28;20028;-73
2023/02/07 06:05:38;;;;;;;39.20;21.30;;;;;;;-1.06;79.98;101204.44;5063822;28;20025;-74
2023/02/07 06:08:04;;;;;;;34.92;19.10;;;;;;;-0.51;79.01;101197.53;5060285;28;20031;-73
2023/02/07 06:10:29;;;;;;;32.58;18.90;;;;;;;-0.33;78.16;101206.59;5062405;28;20150;-73
2023/02/07 06:12:54;;;;;;;32.78;19.80;;;;;;;-0.34;78.12;101205.75;5066797;28;20051;-73
2023/02/07 06:15:20;;;;;;;30.83;18.30;;;;;;;-0.37;77.78;101199.94;5064005;28;20067;-74
2023/02/07 06:17:46;;;;;;;31.40;18.83;;;;;;;-0.30;77.44;101204.56;5063545;28;20028;-74
2023/02/07 06:20:11;;;;;;;27.50;18.17;;;;;;;-0.30;77.00;101204.56;5061355;28;20185;-74
2023/02/07 06:22:37;;;;;;;34.47;18.65;;;;;;;-0.31;77.65;101209.94;5062396;28;20032;-74
2023/02/07 06:25:03;;;;;;;30.92;18.10;;;;;;;-0.23;77.19;101207.53;5064479;28;20025;-73
2023/02/07 06:27:28;;;;;;;38.00;19.88;;;;;;;-0.79;77.08;101204.09;5058465;28;20762;-73
2023/02/07 06:29:53;;;;;;;34.42;19.90;;;;;;;-0.46;77.91;101206.69;5059844;28;20505;-74
2023/02/07 06:32:19;;;;;;;33.83;20.48;;;;;;;-0.52;77.29;101203.72;5063773;28;20032;-73
2023/02/07 06:34:44;;;;;;;35.33;21.45;;;;;;;-1.12;76.60;101193.56;5066559;28;20044;-74
2023/02/07 06:37:09;;;;;;;34.80;19.80;;;;;;;-1.07;79.08;101207.16;5059384;28;20539;-74
2023/02/07 06:39:34;;;;;;;38.03;21.75;;;;;;;-0.97;78.67;101213.38;5058240;28;20106;-73
2023/02/07 06:42:00;;;;;;;34.88;20.83;;;;;;;-0.55;78.11;101217.94;5059358;28;23261;-73
2023/02/07 06:44:25;;;;;;;37.78;20.95;;;;;;;-0.44;77.17;101209.22;5060558;28;20032;-74
2023/02/07 06:46:51;;;;;;;37.88;20.83;;;;;;;-0.70;77.08;101206.03;5060489;28;20123;-73
2023/02/07 06:49:16;;;;;;;38.72;20.98;;;;;;;-0.64;78.12;101204.69;5061193;28;20048;-75
2023/02/07 06:51:41;;;;;;;36.05;21.17;;;;;;;-0.50;77.71;101199.22;5060890;28;20036;-73
2023/02/07 06:54:08;;;;;;;34.58;20.77;;;;;;;-1.21;77.54;101207.38;5062475;28;20037;-74
2023/02/07 06:56:34;;;;;;;43.15;23.83;;;;;;;-1.03;77.90;101201.59;5059846;28;20032;-74
2023/02/07 06:58:59;;;;;;;36.78;22.95;;;;;;;-0.71;77.60;101182.53;5067638;28;20086;-74
2023/02/07 07:01:26;;;;;;;40.25;22.17;;;;;;;-0.89;77.72;101203.13;5060367;28;20696;-74
2023/02/07 07:03:51;;;;;;;40.95;24.15;;;;;;;-0.85;77.91;101202.78;5061192;28;20028;-74
2023/02/07 07:06:17;;;;;;;38.47;21.83;;;;;;;-0.88;77.52;101183.84;5052499;28;20052;-74
2023/02/07 07:08:42;;;;;;;46.20;26.35;;;;;;;-1.25;77.40;101187.59;5066407;28;20060;-74
2023/02/07 07:11:07;;;;;;;39.80;22.30;;;;;;;-1.58;80.30;101188.34;5061914;28;20064;-75
2023/02/07 07:13:33;;;;;;;46.88;24.73;;;;;;;-1.63;79.07;101195.69;5061313;28;20056;-73
2023/02/07 07:15:58;;;;;;;44.15;26.35;;;;;;;-2.15;78.14;101193.41;5060648;28;20078;-72
2023/02/07 07:18:23;;;;;;;47.60;26.20;;;;;;;-2.39;79.97;101200.38;5060941;28;20066;-75
2023/02/07 07:20:53;;;;;;;46.08;24.63;;;;;;;-1.39;80.61;101206.09;5062313;28;20101;-76
2023/02/07 07:23:18;;;;;;;49.20;29.73;;;;;;;-1.40;77.99;101199.22;5063430;28;20033;-76
2023/02/07 07:25:44;;;;;;;48.88;29.13;;;;;;;-2.78;79.04;101200.56;5054450;28;20043;-75
2023/02/07 07:28:09;;;;;;;52.33;27.90;;;;;;;-2.81;80.46;101208.59;5059874;28;20020;-75
2023/02/07 07:30:34;;;;;;;49.45;28.92;;;;;;;-3.23;81.84;101218.41;5044073;28;20290;-72
2023/02/07 07:33:00;;;;;;;60.28;30.55;;;;;;;-3.41;83.11;101217.03;5055275;28;20068;-75
2023/02/07 07:35:25;;;;;;;46.10;26.85;;;;;;;-3.03;82.14;101210.06;5061028;28;20041;-75
2023/02/07 07:37:50;;;;;;;62.42;27.75;;;;;;;-2.67;81.94;101208.47;5060400;28;20055;-75
2023/02/07 07:40:16;;;;;;;47.00;26.75;;;;;;;-2.36;82.43;101213.25;5061628;28;20032;-73
2023/02/07 07:42:41;;;;;;;54.80;29.80;;;;;;;-2.44;80.63;101218.16;5051925;28;20039;-74
2023/02/07 07:45:07;;;;;;;51.95;28.85;;;;;;;-2.68;81.37;101219.88;5051902;28;20028;-74
2023/02/07 07:47:32;;;;;;;52.30;28.05;;;;;;;-2.95;81.72;101221.78;5049903;28;20037;-74
2023/02/07 07:49:58;;;;;;;47.53;28.13;;;;;;;-3.72;82.42;101232.16;5051961;28;20049;-73
2023/02/07 07:52:23;;;;;;;54.33;28.13;;;;;;;-3.26;84.66;101239.50;5056741;28;20486;-74
2023/02/07 07:54:48;;;;;;;52.83;27.05;;;;;;;-3.21;83.60;101237.41;5060697;28;20107;-75
2023/02/07 07:57:14;;;;;;;61.03;30.42;;;;;;;-2.47;82.97;101228.84;5057013;28;20040;-75
2023/02/07 07:59:39;;;;;;;53.53;30.15;;;;;;;-3.18;82.10;101225.94;5060305;28;20067;-75
2023/02/07 08:02:04;;;;;;;52.63;28.50;;;;;;;-3.17;81.96;101219.78;5056039;28;20510;-75
2023/02/07 08:04:30;;;;;;;52.72;27.73;;;;;;;-3.74;83.87;101227.06;5054566;28;20482;-74
2023/02/07 08:06:56;;;;;;;54.67;29.13;;;;;;;-3.16;84.06;101218.81;5055590;28;20040;-75
2023/02/07 08:09:21;;;;;;;52.42;29.10;;;;;;;-3.52;83.80;101227.34;5049824;28;20032;-71
2023/02/07 08:11:47;;;;;;;53.58;27.92;;;;;;;-3.92;84.89;101228.22;5050838;28;20024;-74
2023/02/07 08:14:12;;;;;;;47.90;25.45;;;;;;;-2.80;86.04;101223.34;5051841;28;20085;-75
2023/02/07 08:16:37;;;;;;;51.35;28.00;;;;;;;-3.07;82.81;101213.81;5051944;28;20081;-74
2023/02/07 08:19:03;;;;;;;51.38;29.13;;;;;;;-3.87;84.63;101216.59;5051007;28;20032;-74
2023/02/07 08:21:28;;;;;;;48.28;25.88;;;;;;;-2.37;85.27;101215.03;5051364;28;20086;-75
2023/02/07 08:23:53;;;;;;;50.15;28.50;;;;;;;-3.10;82.64;101214.03;5048802;28;20070;-75
2023/02/07 08:26:19;;;;;;;50.60;26.05;;;;;;;-2.99;83.96;101208.06;5047888;28;20029;-71
2023/02/07 08:28:47;;;;;;;55.25;26.77;;;;;;;-3.24;83.85;101208.06;5047241;28;20166;-71
2023/02/07 08:31:12;;;;;;;51.40;27.40;;;;;;;-3.03;83.30;101215.28;5029610;28;20032;-72
2023/02/07 08:33:38;;;;;;;58.70;29.33;;;;;;;-3.00;83.67;101210.78;5054791;28;20082;-74
2023/02/07 08:36:07;;;;;;;58.78;30.40;;;;;;;-3.04;83.60;101215.41;5049615;28;20033;-73
2023/02/07 08:38:33;;;;;;;52.78;26.52;;;;;;;-3.43;83.73;101213.66;5050843;28;20020;-74
2023/02/07 08:40:58;;;;;;;54.05;28.42;;;;;;;-3.66;84.58;101219.56;5057002;28;20074;-73
2023/02/07 08:43:23;;;;;;;40.60;26.25;;;;;;;-2.91;84.87;101223.22;5052585;28;20431;-72
2023/02/07 08:45:49;;;;;;;50.00;27.13;;;;;;;-2.79;82.92;101227.59;5073674;28;20059;-74
2023/02/07 08:48:14;;;;;;;48.90;26.95;;;;;;;-3.13;83.82;101239.53;5058567;28;20036;-75
2023/02/07 08:50:40;;;;;;;56.03;29.55;;;;;;;-2.63;83.57;101236.06;5054937;28;20039;-72
2023/02/07 08:53:06;;;;;;;48.20;24.70;;;;;;;-2.37;84.04;101220.25;5057286;28;20029;-75
2023/02/07 08:55:31;;;;;;;47.03;25.75;;;;;;;-1.78;83.05;101230.84;5057435;28;20086;-75
2023/02/07 08:57:57;;;;;;;51.20;28.02;;;;;;;-1.24;81.77;101233.78;5059357;28;20040;-74
2023/02/07 09:00:22;;;;;;;43.78;24.70;;;;;;;-1.98;82.11;101234.88;5061818;28;20062;-75
2023/02/07 09:02:47;;;;;;;46.80;28.15;;;;;;;-1.57;82.07;101226.63;5039403;28;20401;-74
2023/02/07 09:05:13;;;;;;;43.33;25.10;;;;;;;-1.13;82.41;101225.94;5061922;28;20025;-75
2023/02/07 09:07:38;;;;;;;56.92;30.27;;;;;;;-2.58;81.36;101220.91;5057816;28;20036;-73
2023/02/07 09:10:06;;;;;;;55.92;27.40;;;;;;;-2.61;82.24;101223.72;5058824;28;20056;-75
2023/02/07 09:12:32;;;;;;;50.55;26.77;;;;;;;-1.91;83.88;101230.03;5060715;28;20027;-74
2023/02/07 09:14:58;;;;;;;47.78;25.83;;;;;;;-1.24;82.27;101233.78;5061231;28;20392;-75
2023/02/07 09:17:23;;;;;;;47.28;26.20;;;;;;;-0.85;81.33;101230.75;5062969;28;20033;-75
2023/02/07 09:19:48;;;;;;;45.55;27.08;;;;;;;-0.97;80.76;101227.31;5057494;28;20035;-74
2023/02/07 09:22:14;;;;;;;51.10;27.83;;;;;;;-1.16;79.25;101232.28;5053036;28;20064;-75
2023/02/07 09:24:39;;;;;;;46.97;27.48;;;;;;;-1.24;81.91;101228.53;5053195;28;20040;-75
2023/02/07 09:27:04;;;;;;;51.53;29.58;;;;;;;-1.00;80.09;101234.56;5053590;28;20032;-74
2023/02/07 09:29:30;;;;;;;50.03;28.05;;;;;;;-0.84;79.89;101227.22;5068084;28;20056;-72
2023/02/07 09:31:55;;;;;;;50.25;26.73;;;;;;;-0.57;78.97;101229.50;5061162;28;20496;-75
2023/02/07 09:34:20;;;;;;;41.33;25.15;;;;;;;-1.06;79.96;101220.16;5059242;28;20464;-75
2023/02/07 09:36:48;;;;;;;44.33;26.20;;;;;;;-0.22;78.80;101228.38;5054926;28;20044;-76
2023/02/07 09:39:14;;;;;;;41.70;23.60;;;;;;;-0.23;78.23;101229.34;5058101;28;20056;-75
2023/02/07 09:41:51;;;;;;;46.55;25.30;;;;;;;-0.16;78.83;101227.94;5066814;28;20053;-75
2023/02/07 09:44:41;;;;;;;47.10;26.00;;;;;;;-0.77;79.68;101223.16;5067207;28;20284;-73
2023/02/07 09:47:14;;;;;;;43.03;24.30;;;;;;;-0.17;78.97;101235.91;5055889;28;20017;-75
2023/02/07 09:49:45;;;;;;;39.67;24.17;;;;;;;-0.26;78.36;101234.84;5058681;28;20040;-73
2023/02/07 09:52:17;;;;;;;41.15;24.00;;;;;;;-0.18;78.10;101232.47;5065605;28;20527;-73
2023/02/07 09:54:46;;;;;;;39.90;22.80;;;;;;;-0.30;77.74;101229.94;5063555;28;20024;-73
2023/02/07 09:57:20;;;;;;;36.92;21.85;;;;;;;-0.17;78.49;101231.50;5060040;28;20115;-73
2023/02/07 10:00:08;;;;;;;47.90;25.05;;;;;;;-0.46;78.07;101230.31;5052850;28;20374;-73
2023/02/07 10:02:49;;;;;;;44.15;24.35;;;;;;;-0.13;78.08;101230.28;5057017;28;20025;-75
2023/02/07 10:05:24;;;;;;;42.60;24.90;;;;;;;-0.19;77.67;101227.31;5077166;28;20036;-73
2023/02/07 10:07:50;;;;;;;43.47;24.23;;;;;;;-0.31;77.86;101229.13;5059868;28;20473;-73
2023/02/07 10:10:22;;;;;;;41.78;23.48;;;;;;;-0.21;78.27;101227.44;5059997;28;20158;-74
2023/02/07 10:13:15;;;;;;;45.15;23.75;;;;;;;-1.04;79.05;101222.63;5058911;28;20036;-74
2023/02/07 10:16:04;;;;;;;44.92;24.02;;;;;;;-0.46;79.22;101240.81;5057160;28;20138;-74
2023/02/07 10:18:41;;;;;;;42.53;23.50;;;;;;;-0.25;78.80;101233.91;5064449;28;20028;-73
2023/02/07 10:21:59;;;;;;;43.53;24.48;;;;;;;-0.61;78.16;101239.38;5065944;28;20508;-74
2023/02/07 10:24:36;;;;;;;;;;;;;;;-1.00;80.91;101235.41;5015734;28;20549;-74
2023/02/07 10:27:11;;;;;;;39.58;22.38;;;;;;;-0.10;79.45;101235.31;5057049;28;19923;-73
2023/02/07 10:29:54;;;;;;;43.78;24.63;;;;;;;-1.56;78.82;101237.03;5066700;28;20060;-74
2023/02/07 10:32:25;;;;;;;41.20;22.40;;;;;;;-0.90;82.14;101228.53;5061580;28;20055;-73
2023/02/07 10:35:07;;;;;;;46.15;25.85;;;;;;;-0.72;81.25;101228.88;5071972;28;20044;-74
2023/02/07 10:37:37;;;;;;;43.72;22.95;;;;;;;-0.17;80.44;101234.13;5071427;28;20035;-73
2023/02/07 10:40:11;;;;;;;43.85;26.20;;;;;;;-1.85;78.66;101238.28;5068335;28;20024;-73
2023/02/07 10:42:40;;;;;;;41.97;24.15;;;;;;;-1.01;82.79;101238.16;5070260;28;20035;-75
2023/02/07 10:45:11;;;;;;;40.58;24.27;;;;;;;-0.53;79.63;101228.31;5068912;28;20035;-74
2023/02/07 10:47:38;;;;;;;47.45;25.30;;;;;;;-1.18;78.98;101228.09;5059837;28;20032;-73
2023/02/07 10:50:17;;;;;;;43.92;23.02;;;;;;;-1.17;82.68;101233.22;5061157;28;20029;-73
2023/02/07 10:52:51;;;;;;;43.75;25.70;;;;;;;-0.84;79.67;101219.34;5067227;28;20036;-74
2023/02/07 10:55:19;;;;;;;45.65;23.50;;;;;;;-1.64;79.47;101230.69;5062908;28;20639;-73
2023/02/07 10:57:53;;;;;;;43.53;24.08;;;;;;;-0.67;81.34;101231.97;5066173;28;20028;-73
2023/02/07 11:00:31;;;;;;;43.20;23.95;;;;;;;-0.57;80.87;101226.88;5066184;28;20024;-74
2023/02/07 11:03:12;;;;;;;43.30;23.38;;;;;;;-0.52;81.47;101224.72;5062953;28;20366;-74
2023/02/07 11:05:55;;;;;;;43.20;23.27;;;;;;;-0.24;81.02;101221.63;5061846;28;20462;-74
2023/02/07 11:08:31;;;;;;;41.22;24.27;;;;;;;-0.23;79.21;101215.41;5051938;28;20482;-73
2023/02/07 11:10:59;;;;;;;39.25;22.85;;;;;;;-0.03;79.87;101220.75;5061097;28;20029;-73
2023/02/07 11:13:31;;;;;;;45.20;24.50;;;;;;;-0.65;77.22;101213.50;5064427;28;20037;-73
2023/02/07 11:16:05;;;;;;;39.65;22.63;;;;;;;-0.39;80.79;101213.16;5059378;28;20025;-74
2023/02/07 11:18:44;;;;;;;38.28;22.98;;;;;;;-0.46;80.98;101205.91;5061379;28;20032;-73